sensor_id;sensor_type;location;lat;lon;timestamp;P1;durP1;ratioP1;P2;durP2;ratioP2
67074;SDS011;53990;50.334;18.640;2023-03-20T00:01:20;33.40;;;19.40;;
67074;SDS011;53990;50.334;18.640;2023-03-20T00:03:49;35.00;;;19.20;;
67074;SDS011;53990;50.334;18.640;2023-03-20T00:06:19;32.80;;;19.10;;
67074;SDS011;53990;50.334;18.640;2023-03-20T00:08:50;28.70;;;18.10;;
67074;SDS011;53990;50.334;18.640;2023-03-20T00:16:28;30.40;;;18.50;;
67074;SDS011;53990;50.334;18.640;2023-03-20T00:18:57;33.70;;;19.20;;
67074;SDS011;53990;50.334;18.640;2023-03-20T00:21:25;34.00;;;19.00;;
67074;SDS011;53990;50.334;18.640;2023-03-20T00:23:53;33.60;;;18.60;;
67074;SDS011;53990;50.334;18.640;2023-03-20T00:26:27;33.30;;;18.30;;
67074;SDS011;53990;50.334;18.640;2023-03-20T00:28:57;32.10;;;18.60;;
67074;SDS011;53990;50.334;18.640;2023-03-20T00:31:33;33.80;;;18.90;;
67074;SDS011;53990;50.334;18.640;2023-03-20T00:34:04;34.10;;;19.00;;
67074;SDS011;53990;50.334;18.640;2023-03-20T00:36:32;29.40;;;18.80;;
67074;SDS011;53990;50.334;18.640;2023-03-20T00:38:59;31.00;;;18.00;;
67074;SDS011;53990;50.334;18.640;2023-03-20T00:41:31;33.50;;;19.20;;
67074;SDS011;53990;50.334;18.640;2023-03-20T00:44:03;30.30;;;19.00;;
67074;SDS011;53990;50.334;18.640;2023-03-20T00:46:36;33.90;;;19.20;;
67074;SDS011;53990;50.334;18.640;2023-03-20T00:49:04;34.50;;;19.90;;
67074;SDS011;53990;50.334;18.640;2023-03-20T00:51:32;34.40;;;19.30;;
67074;SDS011;53990;50.334;18.640;2023-03-20T00:53:59;32.70;;;19.00;;
67074;SDS011;53990;50.334;18.640;2023-03-20T00:56:34;31.80;;;19.00;;
67074;SDS011;53990;50.334;18.640;2023-03-20T00:59:02;31.90;;;18.80;;
67074;SDS011;53990;50.334;18.640;2023-03-20T01:01:30;34.30;;;20.70;;
67074;SDS011;53990;50.334;18.640;2023-03-20T01:03:58;33.30;;;20.10;;
67074;SDS011;53990;50.334;18.640;2023-03-20T01:06:26;34.40;;;19.50;;
67074;SDS011;53990;50.334;18.640;2023-03-20T01:08:54;32.80;;;18.80;;
67074;SDS011;53990;50.334;18.640;2023-03-20T01:11:23;35.00;;;20.10;;
67074;SDS011;53990;50.334;18.640;2023-03-20T01:13:51;34.40;;;20.00;;
67074;SDS011;53990;50.334;18.640;2023-03-20T01:16:22;33.10;;;19.10;;
67074;SDS011;53990;50.334;18.640;2023-03-20T01:18:50;34.90;;;21.20;;
67074;SDS011;53990;50.334;18.640;2023-03-20T01:21:18;35.10;;;20.30;;
67074;SDS011;53990;50.334;18.640;2023-03-20T01:23:47;35.60;;;20.20;;
67074;SDS011;53990;50.334;18.640;2023-03-20T01:26:19;36.20;;;20.50;;
67074;SDS011;53990;50.334;18.640;2023-03-20T01:28:49;35.30;;;21.20;;
67074;SDS011;53990;50.334;18.640;2023-03-20T01:31:17;37.10;;;21.00;;
67074;SDS011;53990;50.334;18.640;2023-03-20T01:33:44;39.30;;;21.10;;
67074;SDS011;53990;50.334;18.640;2023-03-20T01:36:14;37.00;;;20.70;;
67074;SDS011;53990;50.334;18.640;2023-03-20T01:38:42;33.40;;;20.50;;
67074;SDS011;53990;50.334;18.640;2023-03-20T01:41:14;33.90;;;21.90;;
67074;SDS011;53990;50.334;18.640;2023-03-20T01:43:44;36.50;;;21.00;;
67074;SDS011;53990;50.334;18.640;2023-03-20T01:53:52;36.00;;;21.70;;
67074;SDS011;53990;50.334;18.640;2023-03-20T01:56:20;37.00;;;22.00;;
67074;SDS011;53990;50.334;18.640;2023-03-20T01:58:52;38.30;;;22.90;;
67074;SDS011;53990;50.334;18.640;2023-03-20T02:01:23;35.10;;;21.30;;
67074;SDS011;53990;50.334;18.640;2023-03-20T02:03:52;35.70;;;22.40;;
67074;SDS011;53990;50.334;18.640;2023-03-20T02:06:21;37.10;;;22.70;;
67074;SDS011;53990;50.334;18.640;2023-03-20T02:08:50;36.20;;;21.30;;
67074;SDS011;53990;50.334;18.640;2023-03-20T02:11:20;36.00;;;21.60;;
67074;SDS011;53990;50.334;18.640;2023-03-20T02:13:53;39.40;;;22.00;;
67074;SDS011;53990;50.334;18.640;2023-03-20T02:16:21;32.90;;;20.60;;
67074;SDS011;53990;50.334;18.640;2023-03-20T02:18:50;36.70;;;21.40;;
67074;SDS011;53990;50.334;18.640;2023-03-20T02:27:38;38.30;;;22.00;;
67074;SDS011;53990;50.334;18.640;2023-03-20T02:38:08;39.50;;;22.80;;
67074;SDS011;53990;50.334;18.640;2023-03-20T02:45:47;36.00;;;22.00;;
67074;SDS011;53990;50.334;18.640;2023-03-20T02:51:09;36.80;;;21.70;;
67074;SDS011;53990;50.334;18.640;2023-03-20T02:53:51;36.30;;;21.90;;
67074;SDS011;53990;50.334;18.640;2023-03-20T02:56:31;37.40;;;21.80;;
67074;SDS011;53990;50.334;18.640;2023-03-20T03:01:42;35.50;;;21.30;;
67074;SDS011;53990;50.334;18.640;2023-03-20T03:04:18;38.70;;;22.70;;
67074;SDS011;53990;50.334;18.640;2023-03-20T03:06:49;36.80;;;21.30;;
67074;SDS011;53990;50.334;18.640;2023-03-20T03:09:26;36.70;;;21.70;;
67074;SDS011;53990;50.334;18.640;2023-03-20T03:11:59;34.70;;;19.30;;
67074;SDS011;53990;50.334;18.640;2023-03-20T03:14:40;35.40;;;22.30;;
67074;SDS011;53990;50.334;18.640;2023-03-20T03:17:10;33.20;;;19.50;;
67074;SDS011;53990;50.334;18.640;2023-03-20T03:19:41;29.00;;;18.10;;
67074;SDS011;53990;50.334;18.640;2023-03-20T03:22:10;31.30;;;19.20;;
67074;SDS011;53990;50.334;18.640;2023-03-20T03:24:43;30.30;;;18.60;;
67074;SDS011;53990;50.334;18.640;2023-03-20T03:27:36;29.20;;;18.10;;
67074;SDS011;53990;50.334;18.640;2023-03-20T03:30:22;29.30;;;18.40;;
67074;SDS011;53990;50.334;18.640;2023-03-20T03:33:14;29.20;;;19.00;;
67074;SDS011;53990;50.334;18.640;2023-03-20T03:35:45;31.10;;;18.80;;
67074;SDS011;53990;50.334;18.640;2023-03-20T03:44:08;27.30;;;18.00;;
67074;SDS011;53990;50.334;18.640;2023-03-20T03:49:15;29.50;;;18.60;;
67074;SDS011;53990;50.334;18.640;2023-03-20T03:51:44;29.20;;;18.40;;
67074;SDS011;53990;50.334;18.640;2023-03-20T03:54:21;30.10;;;18.20;;
67074;SDS011;53990;50.334;18.640;2023-03-20T03:56:50;29.60;;;18.60;;
67074;SDS011;53990;50.334;18.640;2023-03-20T03:59:32;29.50;;;18.70;;
67074;SDS011;53990;50.334;18.640;2023-03-20T04:02:03;29.70;;;18.40;;
67074;SDS011;53990;50.334;18.640;2023-03-20T04:04:33;30.70;;;19.70;;
67074;SDS011;53990;50.334;18.640;2023-03-20T04:07:00;28.20;;;18.80;;
67074;SDS011;53990;50.334;18.640;2023-03-20T04:09:27;28.10;;;18.30;;
67074;SDS011;53990;50.334;18.640;2023-03-20T04:11:55;30.00;;;18.40;;
67074;SDS011;53990;50.334;18.640;2023-03-20T04:14:22;28.80;;;18.50;;
67074;SDS011;53990;50.334;18.640;2023-03-20T04:16:50;30.50;;;18.30;;
67074;SDS011;53990;50.334;18.640;2023-03-20T04:19:17;29.00;;;18.50;;
67074;SDS011;53990;50.334;18.640;2023-03-20T04:21:44;29.40;;;18.70;;
67074;SDS011;53990;50.334;18.640;2023-03-20T04:24:11;29.60;;;18.50;;
67074;SDS011;53990;50.334;18.640;2023-03-20T04:26:39;27.70;;;18.90;;
67074;SDS011;53990;50.334;18.640;2023-03-20T04:29:06;31.40;;;18.50;;
67074;SDS011;53990;50.334;18.640;2023-03-20T04:31:33;33.60;;;19.00;;
67074;SDS011;53990;50.334;18.640;2023-03-20T04:34:01;31.30;;;19.00;;
67074;SDS011;53990;50.334;18.640;2023-03-20T04:36:31;30.40;;;18.70;;
67074;SDS011;53990;50.334;18.640;2023-03-20T04:38:58;27.20;;;19.10;;
67074;SDS011;53990;50.334;18.640;2023-03-20T04:41:25;30.70;;;18.60;;
67074;SDS011;53990;50.334;18.640;2023-03-20T04:43:53;39.50;;;21.90;;
67074;SDS011;53990;50.334;18.640;2023-03-20T04:46:20;31.20;;;19.90;;
67074;SDS011;53990;50.334;18.640;2023-03-20T04:48:47;30.50;;;19.60;;
67074;SDS011;53990;50.334;18.640;2023-03-20T04:51:14;29.70;;;19.00;;
67074;SDS011;53990;50.334;18.640;2023-03-20T04:53:42;29.50;;;19.70;;
67074;SDS011;53990;50.334;18.640;2023-03-20T04:56:09;32.00;;;20.70;;
67074;SDS011;53990;50.334;18.640;2023-03-20T04:58:36;30.80;;;20.10;;
67074;SDS011;53990;50.334;18.640;2023-03-20T05:01:04;30.40;;;20.10;;
67074;SDS011;53990;50.334;18.640;2023-03-20T05:03:31;33.70;;;20.70;;
67074;SDS011;53990;50.334;18.640;2023-03-20T05:05:59;34.00;;;20.70;;
67074;SDS011;53990;50.334;18.640;2023-03-20T05:08:26;33.50;;;20.00;;
67074;SDS011;53990;50.334;18.640;2023-03-20T05:10:56;30.00;;;19.80;;
67074;SDS011;53990;50.334;18.640;2023-03-20T05:13:24;28.90;;;19.70;;
67074;SDS011;53990;50.334;18.640;2023-03-20T05:15:51;33.20;;;20.80;;
67074;SDS011;53990;50.334;18.640;2023-03-20T05:18:18;31.70;;;19.90;;
67074;SDS011;53990;50.334;18.640;2023-03-20T05:20:47;32.20;;;19.90;;
67074;SDS011;53990;50.334;18.640;2023-03-20T05:23:15;31.30;;;19.70;;
67074;SDS011;53990;50.334;18.640;2023-03-20T05:25:43;28.80;;;19.30;;
67074;SDS011;53990;50.334;18.640;2023-03-20T05:28:10;31.40;;;20.30;;
67074;SDS011;53990;50.334;18.640;2023-03-20T05:30:37;30.60;;;19.20;;
67074;SDS011;53990;50.334;18.640;2023-03-20T05:33:05;29.20;;;19.20;;
67074;SDS011;53990;50.334;18.640;2023-03-20T05:35:32;30.30;;;19.70;;
67074;SDS011;53990;50.334;18.640;2023-03-20T05:37:59;31.10;;;19.30;;
67074;SDS011;53990;50.334;18.640;2023-03-20T05:40:27;31.20;;;19.00;;
67074;SDS011;53990;50.334;18.640;2023-03-20T05:42:54;30.00;;;19.80;;
67074;SDS011;53990;50.334;18.640;2023-03-20T05:45:21;31.20;;;19.70;;
67074;SDS011;53990;50.334;18.640;2023-03-20T05:47:49;31.40;;;19.20;;
67074;SDS011;53990;50.334;18.640;2023-03-20T05:50:16;32.60;;;19.90;;
67074;SDS011;53990;50.334;18.640;2023-03-20T05:52:47;34.40;;;19.90;;
67074;SDS011;53990;50.334;18.640;2023-03-20T05:55:15;30.30;;;18.90;;
67074;SDS011;53990;50.334;18.640;2023-03-20T05:57:42;28.90;;;19.80;;
67074;SDS011;53990;50.334;18.640;2023-03-20T06:00:10;32.10;;;20.10;;
67074;SDS011;53990;50.334;18.640;2023-03-20T06:02:37;31.30;;;21.00;;
67074;SDS011;53990;50.334;18.640;2023-03-20T06:05:05;33.60;;;21.20;;
67074;SDS011;53990;50.334;18.640;2023-03-20T06:07:32;32.20;;;21.30;;
67074;SDS011;53990;50.334;18.640;2023-03-20T06:10:00;34.20;;;22.00;;
67074;SDS011;53990;50.334;18.640;2023-03-20T06:12:27;33.60;;;20.40;;
67074;SDS011;53990;50.334;18.640;2023-03-20T06:14:55;33.10;;;22.40;;
67074;SDS011;53990;50.334;18.640;2023-03-20T06:17:22;33.40;;;21.10;;
67074;SDS011;53990;50.334;18.640;2023-03-20T06:19:50;33.80;;;19.60;;
67074;SDS011;53990;50.334;18.640;2023-03-20T06:22:17;34.40;;;23.20;;
67074;SDS011;53990;50.334;18.640;2023-03-20T06:24:44;40.60;;;24.60;;
67074;SDS011;53990;50.334;18.640;2023-03-20T06:27:12;36.10;;;24.30;;
67074;SDS011;53990;50.334;18.640;2023-03-20T06:29:39;38.30;;;24.20;;
67074;SDS011;53990;50.334;18.640;2023-03-20T06:32:06;39.30;;;24.30;;
67074;SDS011;53990;50.334;18.640;2023-03-20T06:34:34;40.40;;;24.80;;
67074;SDS011;53990;50.334;18.640;2023-03-20T06:37:02;35.40;;;24.40;;
67074;SDS011;53990;50.334;18.640;2023-03-20T06:39:29;43.20;;;24.80;;
67074;SDS011;53990;50.334;18.640;2023-03-20T06:41:57;33.80;;;23.70;;
67074;SDS011;53990;50.334;18.640;2023-03-20T06:44:24;37.30;;;25.20;;
67074;SDS011;53990;50.334;18.640;2023-03-20T06:46:53;32.50;;;23.80;;
67074;SDS011;53990;50.334;18.640;2023-03-20T06:49:20;35.90;;;25.00;;
67074;SDS011;53990;50.334;18.640;2023-03-20T06:51:48;37.90;;;26.20;;
67074;SDS011;53990;50.334;18.640;2023-03-20T06:54:15;37.50;;;25.10;;
67074;SDS011;53990;50.334;18.640;2023-03-20T06:56:42;39.70;;;26.80;;
67074;SDS011;53990;50.334;18.640;2023-03-20T06:59:09;38.30;;;25.60;;
67074;SDS011;53990;50.334;18.640;2023-03-20T07:01:37;39.80;;;26.20;;
67074;SDS011;53990;50.334;18.640;2023-03-20T07:04:04;38.30;;;26.20;;
67074;SDS011;53990;50.334;18.640;2023-03-20T07:06:32;42.20;;;28.20;;
67074;SDS011;53990;50.334;18.640;2023-03-20T07:09:00;38.20;;;27.20;;
67074;SDS011;53990;50.334;18.640;2023-03-20T07:11:28;39.80;;;27.30;;
67074;SDS011;53990;50.334;18.640;2023-03-20T07:13:56;36.60;;;27.10;;
67074;SDS011;53990;50.334;18.640;2023-03-20T07:16:25;41.20;;;27.40;;
67074;SDS011;53990;50.334;18.640;2023-03-20T07:18:53;39.10;;;27.10;;
67074;SDS011;53990;50.334;18.640;2023-03-20T07:21:21;37.40;;;26.60;;
67074;SDS011;53990;50.334;18.640;2023-03-20T07:23:49;39.70;;;28.50;;
67074;SDS011;53990;50.334;18.640;2023-03-20T07:26:16;34.70;;;26.70;;
67074;SDS011;53990;50.334;18.640;2023-03-20T07:28:43;37.10;;;26.90;;
67074;SDS011;53990;50.334;18.640;2023-03-20T07:31:21;39.10;;;27.40;;
67074;SDS011;53990;50.334;18.640;2023-03-20T07:33:49;45.10;;;31.00;;
67074;SDS011;53990;50.334;18.640;2023-03-20T07:36:16;40.50;;;27.40;;
67074;SDS011;53990;50.334;18.640;2023-03-20T07:38:44;40.20;;;28.70;;
67074;SDS011;53990;50.334;18.640;2023-03-20T07:41:11;37.60;;;28.00;;
67074;SDS011;53990;50.334;18.640;2023-03-20T07:43:38;41.40;;;28.00;;
67074;SDS011;53990;50.334;18.640;2023-03-20T07:46:06;41.00;;;29.00;;
67074;SDS011;53990;50.334;18.640;2023-03-20T07:48:34;43.20;;;27.70;;
67074;SDS011;53990;50.334;18.640;2023-03-20T07:51:02;44.00;;;30.40;;
67074;SDS011;53990;50.334;18.640;2023-03-20T07:53:29;39.50;;;29.10;;
67074;SDS011;53990;50.334;18.640;2023-03-20T07:55:56;42.20;;;28.20;;
67074;SDS011;53990;50.334;18.640;2023-03-20T07:58:24;43.30;;;28.40;;
67074;SDS011;53990;50.334;18.640;2023-03-20T08:00:51;42.30;;;28.20;;
67074;SDS011;53990;50.334;18.640;2023-03-20T08:03:18;39.90;;;28.30;;
67074;SDS011;53990;50.334;18.640;2023-03-20T08:05:45;40.90;;;28.00;;
67074;SDS011;53990;50.334;18.640;2023-03-20T08:08:13;39.40;;;28.10;;
67074;SDS011;53990;50.334;18.640;2023-03-20T08:10:40;40.30;;;28.60;;
67074;SDS011;53990;50.334;18.640;2023-03-20T08:13:07;43.10;;;29.60;;
67074;SDS011;53990;50.334;18.640;2023-03-20T08:15:34;43.90;;;29.60;;
67074;SDS011;53990;50.334;18.640;2023-03-20T08:18:02;39.80;;;28.70;;
67074;SDS011;53990;50.334;18.640;2023-03-20T08:20:29;43.30;;;30.40;;
67074;SDS011;53990;50.334;18.640;2023-03-20T08:22:57;45.70;;;31.70;;
67074;SDS011;53990;50.334;18.640;2023-03-20T08:25:25;52.30;;;33.40;;
67074;SDS011;53990;50.334;18.640;2023-03-20T08:27:52;46.30;;;31.80;;
67074;SDS011;53990;50.334;18.640;2023-03-20T08:30:19;44.40;;;30.70;;
67074;SDS011;53990;50.334;18.640;2023-03-20T08:32:46;47.40;;;31.50;;
67074;SDS011;53990;50.334;18.640;2023-03-20T08:35:14;41.40;;;30.70;;
67074;SDS011;53990;50.334;18.640;2023-03-20T08:37:41;41.80;;;30.40;;
67074;SDS011;53990;50.334;18.640;2023-03-20T08:40:09;46.40;;;31.10;;
67074;SDS011;53990;50.334;18.640;2023-03-20T08:42:37;45.10;;;31.40;;
67074;SDS011;53990;50.334;18.640;2023-03-20T08:45:05;43.80;;;30.70;;
67074;SDS011;53990;50.334;18.640;2023-03-20T08:47:33;47.60;;;32.40;;
67074;SDS011;53990;50.334;18.640;2023-03-20T08:50:00;45.00;;;32.50;;
67074;SDS011;53990;50.334;18.640;2023-03-20T08:52:27;42.70;;;31.20;;
67074;SDS011;53990;50.334;18.640;2023-03-20T08:54:54;41.40;;;31.10;;
67074;SDS011;53990;50.334;18.640;2023-03-20T08:57:22;46.10;;;30.20;;
67074;SDS011;53990;50.334;18.640;2023-03-20T08:59:49;50.50;;;33.10;;
67074;SDS011;53990;50.334;18.640;2023-03-20T09:02:16;42.60;;;30.00;;
67074;SDS011;53990;50.334;18.640;2023-03-20T09:04:44;45.20;;;32.00;;
67074;SDS011;53990;50.334;18.640;2023-03-20T09:07:11;45.20;;;30.20;;
67074;SDS011;53990;50.334;18.640;2023-03-20T09:09:38;46.60;;;32.00;;
67074;SDS011;53990;50.334;18.640;2023-03-20T09:12:06;46.40;;;31.30;;
67074;SDS011;53990;50.334;18.640;2023-03-20T09:14:33;47.70;;;31.60;;
67074;SDS011;53990;50.334;18.640;2023-03-20T09:17:00;46.70;;;31.00;;
67074;SDS011;53990;50.334;18.640;2023-03-20T09:19:27;47.00;;;30.30;;
67074;SDS011;53990;50.334;18.640;2023-03-20T09:21:55;45.80;;;31.80;;
67074;SDS011;53990;50.334;18.640;2023-03-20T09:24:22;44.90;;;29.20;;
67074;SDS011;53990;50.334;18.640;2023-03-20T09:26:49;39.80;;;26.20;;
67074;SDS011;53990;50.334;18.640;2023-03-20T09:29:17;37.20;;;25.60;;
67074;SDS011;53990;50.334;18.640;2023-03-20T09:31:44;44.60;;;30.20;;
67074;SDS011;53990;50.334;18.640;2023-03-20T09:34:12;40.50;;;28.60;;
67074;SDS011;53990;50.334;18.640;2023-03-20T09:36:39;34.70;;;25.20;;
67074;SDS011;53990;50.334;18.640;2023-03-20T09:39:06;35.10;;;25.30;;
67074;SDS011;53990;50.334;18.640;2023-03-20T09:41:35;44.00;;;28.90;;
67074;SDS011;53990;50.334;18.640;2023-03-20T09:49:24;34.80;;;25.90;;
67074;SDS011;53990;50.334;18.640;2023-03-20T09:51:58;37.30;;;25.70;;
67074;SDS011;53990;50.334;18.640;2023-03-20T09:54:28;33.80;;;25.60;;
67074;SDS011;53990;50.334;18.640;2023-03-20T09:57:00;34.00;;;23.90;;
67074;SDS011;53990;50.334;18.640;2023-03-20T09:59:29;32.10;;;23.90;;
67074;SDS011;53990;50.334;18.640;2023-03-20T10:02:03;34.50;;;24.50;;
67074;SDS011;53990;50.334;18.640;2023-03-20T10:04:32;37.40;;;27.20;;
67074;SDS011;53990;50.334;18.640;2023-03-20T10:07:03;29.40;;;23.10;;
67074;SDS011;53990;50.334;18.640;2023-03-20T10:09:31;30.60;;;23.40;;
67074;SDS011;53990;50.334;18.640;2023-03-20T10:23:05;30.00;;;23.10;;
67074;SDS011;53990;50.334;18.640;2023-03-20T10:25:36;28.90;;;22.80;;
67074;SDS011;53990;50.334;18.640;2023-03-20T10:28:16;30.10;;;22.80;;
67074;SDS011;53990;50.334;18.640;2023-03-20T10:31:27;29.00;;;22.40;;
67074;SDS011;53990;50.334;18.640;2023-03-20T10:42:04;31.80;;;22.80;;
67074;SDS011;53990;50.334;18.640;2023-03-20T10:44:39;26.00;;;21.50;;
67074;SDS011;53990;50.334;18.640;2023-03-20T10:47:11;27.80;;;21.80;;
67074;SDS011;53990;50.334;18.640;2023-03-20T10:49:42;26.70;;;22.30;;
67074;SDS011;53990;50.334;18.640;2023-03-20T10:52:16;30.40;;;24.00;;
67074;SDS011;53990;50.334;18.640;2023-03-20T10:54:46;34.20;;;25.30;;
67074;SDS011;53990;50.334;18.640;2023-03-20T10:57:19;38.00;;;24.50;;
67074;SDS011;53990;50.334;18.640;2023-03-20T10:59:54;33.30;;;23.70;;
67074;SDS011;53990;50.334;18.640;2023-03-20T11:02:27;33.60;;;24.40;;
67074;SDS011;53990;50.334;18.640;2023-03-20T11:04:55;30.10;;;23.50;;
67074;SDS011;53990;50.334;18.640;2023-03-20T11:07:27;28.90;;;23.00;;
67074;SDS011;53990;50.334;18.640;2023-03-20T11:12:33;30.90;;;23.90;;
67074;SDS011;53990;50.334;18.640;2023-03-20T11:15:27;32.10;;;24.30;;
67074;SDS011;53990;50.334;18.640;2023-03-20T11:18:02;33.70;;;27.00;;
67074;SDS011;53990;50.334;18.640;2023-03-20T11:20:37;34.90;;;25.70;;
67074;SDS011;53990;50.334;18.640;2023-03-20T11:23:06;40.40;;;30.80;;
67074;SDS011;53990;50.334;18.640;2023-03-20T11:25:38;29.10;;;24.30;;
67074;SDS011;53990;50.334;18.640;2023-03-20T11:30:47;28.20;;;22.90;;
67074;SDS011;53990;50.334;18.640;2023-03-20T11:33:16;32.70;;;24.70;;
67074;SDS011;53990;50.334;18.640;2023-03-20T11:35:45;30.10;;;22.80;;
67074;SDS011;53990;50.334;18.640;2023-03-20T11:38:15;32.50;;;24.10;;
67074;SDS011;53990;50.334;18.640;2023-03-20T11:40:42;33.10;;;24.50;;
67074;SDS011;53990;50.334;18.640;2023-03-20T11:43:13;33.80;;;25.70;;
67074;SDS011;53990;50.334;18.640;2023-03-20T11:45:43;34.20;;;24.60;;
67074;SDS011;53990;50.334;18.640;2023-03-20T11:48:23;33.40;;;24.60;;
67074;SDS011;53990;50.334;18.640;2023-03-20T11:50:58;34.20;;;24.80;;
67074;SDS011;53990;50.334;18.640;2023-03-20T11:53:28;30.20;;;23.60;;
67074;SDS011;53990;50.334;18.640;2023-03-20T11:56:09;30.90;;;23.90;;
67074;SDS011;53990;50.334;18.640;2023-03-20T11:58:54;31.20;;;24.70;;
67074;SDS011;53990;50.334;18.640;2023-03-20T12:01:23;34.50;;;26.30;;
67074;SDS011;53990;50.334;18.640;2023-03-20T12:04:00;31.40;;;25.10;;
67074;SDS011;53990;50.334;18.640;2023-03-20T12:14:39;34.70;;;26.60;;
67074;SDS011;53990;50.334;18.640;2023-03-20T12:20:10;33.40;;;26.70;;
67074;SDS011;53990;50.334;18.640;2023-03-20T12:22:48;31.20;;;24.60;;
67074;SDS011;53990;50.334;18.640;2023-03-20T12:25:21;32.90;;;25.30;;
67074;SDS011;53990;50.334;18.640;2023-03-20T12:28:04;28.40;;;23.80;;
67074;SDS011;53990;50.334;18.640;2023-03-20T12:33:33;27.70;;;22.80;;
67074;SDS011;53990;50.334;18.640;2023-03-20T12:36:03;34.00;;;24.80;;
67074;SDS011;53990;50.334;18.640;2023-03-20T12:38:32;27.80;;;24.20;;
67074;SDS011;53990;50.334;18.640;2023-03-20T12:41:24;28.20;;;24.00;;
67074;SDS011;53990;50.334;18.640;2023-03-20T12:55:39;31.90;;;24.50;;
67074;SDS011;53990;50.334;18.640;2023-03-20T13:01:01;32.10;;;24.60;;
67074;SDS011;53990;50.334;18.640;2023-03-20T13:06:41;34.50;;;25.40;;
67074;SDS011;53990;50.334;18.640;2023-03-20T13:20:05;35.40;;;27.40;;
67074;SDS011;53990;50.334;18.640;2023-03-20T13:31:22;30.40;;;23.20;;
67074;SDS011;53990;50.334;18.640;2023-03-20T13:36:54;34.50;;;24.70;;
67074;SDS011;53990;50.334;18.640;2023-03-20T13:39:33;31.80;;;24.00;;
67074;SDS011;53990;50.334;18.640;2023-03-20T13:42:04;30.70;;;24.30;;
67074;SDS011;53990;50.334;18.640;2023-03-20T13:44:34;31.40;;;23.90;;
67074;SDS011;53990;50.334;18.640;2023-03-20T13:47:11;30.80;;;24.40;;
67074;SDS011;53990;50.334;18.640;2023-03-20T13:49:49;29.80;;;23.60;;
67074;SDS011;53990;50.334;18.640;2023-03-20T13:59:29;34.40;;;25.50;;
67074;SDS011;53990;50.334;18.640;2023-03-20T14:04:26;33.00;;;25.60;;
67074;SDS011;53990;50.334;18.640;2023-03-20T14:06:55;39.60;;;29.00;;
67074;SDS011;53990;50.334;18.640;2023-03-20T14:09:31;45.30;;;30.30;;
67074;SDS011;53990;50.334;18.640;2023-03-20T14:12:07;38.30;;;28.50;;
67074;SDS011;53990;50.334;18.640;2023-03-20T14:14:52;40.60;;;29.00;;
67074;SDS011;53990;50.334;18.640;2023-03-20T14:17:30;34.50;;;27.10;;
67074;SDS011;53990;50.334;18.640;2023-03-20T14:20:10;33.40;;;27.40;;
67074;SDS011;53990;50.334;18.640;2023-03-20T14:22:39;34.10;;;27.10;;
67074;SDS011;53990;50.334;18.640;2023-03-20T14:25:18;34.80;;;26.80;;
67074;SDS011;53990;50.334;18.640;2023-03-20T14:28:00;37.60;;;28.80;;
67074;SDS011;53990;50.334;18.640;2023-03-20T14:30:41;38.60;;;26.80;;
67074;SDS011;53990;50.334;18.640;2023-03-20T14:38:32;38.70;;;28.80;;
67074;SDS011;53990;50.334;18.640;2023-03-20T14:41:04;37.70;;;28.10;;
67074;SDS011;53990;50.334;18.640;2023-03-20T14:53:57;34.30;;;26.90;;
67074;SDS011;53990;50.334;18.640;2023-03-20T14:56:27;36.50;;;28.50;;
67074;SDS011;53990;50.334;18.640;2023-03-20T14:58:58;35.40;;;27.20;;
67074;SDS011;53990;50.334;18.640;2023-03-20T15:04:36;29.70;;;24.20;;
67074;SDS011;53990;50.334;18.640;2023-03-20T15:09:35;29.60;;;24.00;;
67074;SDS011;53990;50.334;18.640;2023-03-20T15:12:04;30.20;;;24.50;;
67074;SDS011;53990;50.334;18.640;2023-03-20T15:14:44;32.70;;;25.30;;
67074;SDS011;53990;50.334;18.640;2023-03-20T15:17:23;30.60;;;25.40;;
67074;SDS011;53990;50.334;18.640;2023-03-20T15:20:11;39.50;;;30.30;;
67074;SDS011;53990;50.334;18.640;2023-03-20T15:23:00;32.40;;;24.40;;
67074;SDS011;53990;50.334;18.640;2023-03-20T15:27:55;32.00;;;25.70;;
67074;SDS011;53990;50.334;18.640;2023-03-20T15:30:23;32.70;;;24.20;;
67074;SDS011;53990;50.334;18.640;2023-03-20T15:32:52;30.10;;;24.40;;
67074;SDS011;53990;50.334;18.640;2023-03-20T15:35:21;31.60;;;24.50;;
67074;SDS011;53990;50.334;18.640;2023-03-20T15:37:50;31.60;;;25.70;;
67074;SDS011;53990;50.334;18.640;2023-03-20T15:40:24;30.30;;;24.30;;
67074;SDS011;53990;50.334;18.640;2023-03-20T15:43:14;33.80;;;24.40;;
67074;SDS011;53990;50.334;18.640;2023-03-20T15:45:43;31.90;;;24.90;;
67074;SDS011;53990;50.334;18.640;2023-03-20T15:48:19;30.70;;;24.20;;
67074;SDS011;53990;50.334;18.640;2023-03-20T15:51:01;32.30;;;25.80;;
67074;SDS011;53990;50.334;18.640;2023-03-20T15:53:37;30.00;;;24.60;;
67074;SDS011;53990;50.334;18.640;2023-03-20T15:56:16;32.80;;;25.00;;
67074;SDS011;53990;50.334;18.640;2023-03-20T15:58:44;30.30;;;24.50;;
67074;SDS011;53990;50.334;18.640;2023-03-20T16:01:18;30.00;;;24.90;;
67074;SDS011;53990;50.334;18.640;2023-03-20T16:03:47;27.90;;;22.50;;
67074;SDS011;53990;50.334;18.640;2023-03-20T16:06:19;30.50;;;23.50;;
67074;SDS011;53990;50.334;18.640;2023-03-20T16:08:59;28.80;;;23.30;;
67074;SDS011;53990;50.334;18.640;2023-03-20T16:11:44;30.20;;;23.30;;
67074;SDS011;53990;50.334;18.640;2023-03-20T16:14:20;29.70;;;23.90;;
67074;SDS011;53990;50.334;18.640;2023-03-20T16:16:49;70.90;;;47.90;;
67074;SDS011;53990;50.334;18.640;2023-03-20T16:19:17;37.60;;;29.40;;
67074;SDS011;53990;50.334;18.640;2023-03-20T16:22:00;30.90;;;25.30;;
67074;SDS011;53990;50.334;18.640;2023-03-20T16:24:33;33.00;;;25.50;;
67074;SDS011;53990;50.334;18.640;2023-03-20T16:27:06;34.80;;;25.20;;
67074;SDS011;53990;50.334;18.640;2023-03-20T16:29:34;32.00;;;25.90;;
67074;SDS011;53990;50.334;18.640;2023-03-20T16:32:09;45.10;;;34.00;;
67074;SDS011;53990;50.334;18.640;2023-03-20T16:34:47;40.20;;;30.20;;
67074;SDS011;53990;50.334;18.640;2023-03-20T16:37:36;51.90;;;36.40;;
67074;SDS011;53990;50.334;18.640;2023-03-20T16:40:33;33.60;;;28.00;;
67074;SDS011;53990;50.334;18.640;2023-03-20T16:43:16;37.70;;;29.00;;
67074;SDS011;53990;50.334;18.640;2023-03-20T16:45:48;35.80;;;27.30;;
67074;SDS011;53990;50.334;18.640;2023-03-20T16:48:27;38.80;;;28.10;;
67074;SDS011;53990;50.334;18.640;2023-03-20T16:51:15;37.90;;;28.50;;
67074;SDS011;53990;50.334;18.640;2023-03-20T16:53:48;39.90;;;28.90;;
67074;SDS011;53990;50.334;18.640;2023-03-20T16:56:53;44.50;;;30.60;;
67074;SDS011;53990;50.334;18.640;2023-03-20T16:59:17;41.00;;;28.40;;
67074;SDS011;53990;50.334;18.640;2023-03-20T17:01:46;43.10;;;31.80;;
67074;SDS011;53990;50.334;18.640;2023-03-20T17:04:27;48.30;;;34.00;;
67074;SDS011;53990;50.334;18.640;2023-03-20T17:07:20;41.90;;;29.90;;
67074;SDS011;53990;50.334;18.640;2023-03-20T17:12:43;48.50;;;38.30;;
67074;SDS011;53990;50.334;18.640;2023-03-20T17:15:19;61.70;;;47.90;;
67074;SDS011;53990;50.334;18.640;2023-03-20T17:17:47;78.90;;;49.60;;